Latest Weather Observations for Thredbo Top Station

IDN60801

Issued at 6:33 am EST Saturday 24 June 2017 (issued every 30 minutes, with the page automatically refreshed every 10 minutes)

About weather observations | Map of weather stations | Latest weather observations for NSW | Other Formats
Station Details ID: 071032 Name: THREDBO AWS Lat: -36.49 Lon: 148.29 Height: 1957.0 m
Data from the previous 72 hours. | See also: Recent months at Thredbo Top Station
Date/Time
EST
Temp
°C
App
Temp
°C
Dew
Point
°C
Rel
Hum
%
Delta-T
°C
Wind Press
QNH
hPa
Press
MSL
hPa
Rain since
9am
mm
Dir  Spd
km/h
Gust
km/h
Spd
kts
Gust
kts
24/06:30am -2.6 -13.0 -4.6 86 0.6 WNW 41 56 22 30 - - 0.2
24/06:00am -2.6 -13.9 -4.6 86 0.6 WNW 46 65 25 35 - - 0.2
24/05:40am -2.4 -13.1 -4.6 85 0.7 WNW 43 61 23 33 - - 0.2
24/05:30am -2.4 -12.8 -4.7 84 0.7 WNW 41 56 22 30 - - 0.2
24/05:00am -2.5 -13.9 -5.1 82 0.8 WNW 46 65 25 35 - - 0.2
24/04:32am -2.0 -13.7 -4.7 82 0.9 WNW 48 67 26 36 - - 0.2
24/04:30am -2.0 -14.1 -4.7 82 0.9 WNW 50 67 27 36 - - 0.2
24/04:00am -1.6 -13.3 -4.3 82 0.9 WNW 48 72 26 39 - - 0.2
24/03:30am -1.6 -13.6 -4.4 81 0.9 WNW 50 72 27 39 - - 0.2
24/03:01am -1.9 -13.6 -4.6 82 0.9 WNW 48 67 26 36 - - 0.2
24/03:00am -2.0 -14.1 -4.7 82 0.9 WNW 50 67 27 36 - - 0.2
24/02:30am -1.9 -14.4 -5.0 79 1.0 WNW 52 76 28 41 - - 0.2
24/02:00am -1.8 -15.0 -4.9 79 1.0 WNW 56 82 30 44 - - 0.2
24/01:30am -1.6 -12.9 -4.8 79 1.1 WNW 46 70 25 38 - - 0.2
24/01:18am -1.6 -12.5 -4.8 79 1.1 WNW 44 63 24 34 - - 0.2
24/01:03am -1.6 -11.6 -5.1 77 1.2 NW 39 69 21 37 - - 0.2
24/01:00am -1.6 -10.9 -5.3 76 1.2 NW 35 57 19 31 - - 0.2
24/12:35am -1.5 -12.5 -5.2 76 1.2 NW 44 65 24 35 - - 0.0
24/12:30am -1.5 -14.0 -5.3 75 1.3 NW 52 67 28 36 - - 0.0
24/12:00am -1.6 -14.5 -5.6 74 1.3 NW 54 72 29 39 - - 0.0
 
Date/Time
EST
Temp
°C
App
Temp
°C
Dew
Point
°C
Rel
Hum
%
Delta-T
°C
Wind Press
QNH
hPa
Press
MSL
hPa
Rain since
9am
mm
Dir  Spd
km/h
Gust
km/h
Spd
kts
Gust
kts
23/11:40pm -1.7 -12.8 -5.9 73 1.4 NW 44 63 24 34 - - 0.0
23/11:30pm -1.7 -13.9 -5.9 73 1.4 NW 50 63 27 34 - - 0.0
23/11:10pm -1.7 -13.1 -5.7 74 1.3 NW 46 65 25 35 - - 0.0
23/11:00pm -1.8 -13.6 -5.6 75 1.3 NW 48 63 26 34 - - 0.0
23/10:30pm -2.2 -16.2 -6.4 73 1.3 NW 59 78 32 42 - - 0.0
23/10:00pm -2.5 -16.1 -7.0 71 1.4 NW 57 82 31 44 - - 0.0
23/09:30pm -2.8 -18.4 -7.9 68 1.5 NW 67 85 36 46 - - 0.0
23/09:00pm -2.7 -17.7 -9.8 58 2.1 NW 63 83 34 45 - - 0.0
23/08:30pm -2.4 -17.5 -11.6 49 2.6 NW 63 83 34 45 - - 0.0
23/08:02pm -2.4 -17.6 -21.7 21 4.3 NW 61 83 33 45 - - 0.0
23/08:00pm -2.4 -17.6 -22.2 20 4.3 NW 61 74 33 40 - - 0.0
23/07:43pm -2.3 -18.0 -24.0 17 4.5 NW 63 82 34 44 - - 0.0
23/07:30pm -2.3 -18.0 -24.6 16 4.6 NW 63 80 34 43 - - 0.0
23/07:00pm -2.2 -16.8 -26.8 13 4.8 NW 57 69 31 37 - - 0.0
23/06:33pm -1.9 -14.4 -24.3 16 4.7 WNW 46 65 25 35 - - 0.0
23/06:30pm -2.0 -15.2 -25.1 15 4.7 WNW 50 67 27 36 - - 0.0
23/06:00pm -3.0 -17.5 -33.9 7 4.9 NW 56 76 30 41 - - 0.0
23/05:30pm -3.5 -17.7 -37.6 5 4.9 NW 54 74 29 40 - - 0.0
23/05:00pm -2.7 -16.9 -41.9 3 5.2 NW 54 72 29 39 - - 0.0
23/04:38pm -2.3 -16.1 -45.4 2 5.4 NW 52 70 28 38 - - 0.0
23/04:30pm -1.8 -16.0 -45.0 2 5.6 NW 54 70 29 38 - - 0.0
23/04:11pm -1.9 -16.7 -51.1 1 5.6 NW 57 78 31 42 - - 0.0
23/04:00pm -1.7 -16.5 -51.0 1 5.7 NW 57 74 31 40 - - 0.0
23/03:30pm -1.2 -16.0 -50.7 1 5.9 NW 57 78 31 42 - - 0.0
23/03:00pm -0.8 -16.7 -50.5 1 6.0 NW 63 85 34 46 - - 0.0
23/02:30pm -0.9 -16.1 -50.5 1 6.0 NW 59 82 32 44 - - 0.0
23/02:00pm -0.5 -15.7 -50.3 1 6.1 NW 59 80 32 43 - - 0.0
23/01:30pm -0.7 -16.3 -50.4 1 6.0 NW 61 82 33 44 - - 0.0
23/01:03pm -0.6 -16.9 -50.3 1 6.1 NW 65 83 35 45 - - 0.0
23/01:00pm -0.5 -16.8 -50.3 1 6.1 NW 65 82 35 44 - - 0.0
23/12:30pm -0.7 -16.6 -50.4 1 6.0 NW 63 83 34 45 - - 0.0
23/12:01pm -0.4 -15.6 -50.2 1 6.1 NW 59 80 32 43 - - 0.0
23/12:00pm -0.5 -15.7 -50.3 1 6.1 NW 59 76 32 41 - - 0.0
23/11:30am -0.2 -15.8 -50.1 1 6.2 NW 61 80 33 43 - - 0.0
23/11:00am -0.1 -15.7 -50.0 1 6.2 NW 61 80 33 43 1015.0 1017.1 0.0
23/10:34am 0.2 -14.6 -49.8 1 6.3 NW 57 76 31 41 1015.6 1017.7 0.0
23/10:30am 0.1 -14.7 -49.9 1 6.3 NW 57 72 31 39 1015.9 1018.0 0.0
23/10:00am 0.2 - - - - NW 54 70 29 38 1016.1 1018.2 0.0
23/09:32am 0.2 - - - - NW 54 72 29 39 1016.5 1018.6 0.0
23/09:30am 0.1 - - - - NW 54 70 29 38 1016.6 1018.8 0.0
23/09:00am 0.2 - - - - NW 52 70 28 38 1016.7 1018.9 0.0
23/08:37am 0.6 - - - - NW 50 69 27 37 1016.5 1018.6 0.0
23/08:30am 0.3 - - - - NW 52 67 28 36 1016.7 1018.9 0.0
23/08:00am -0.3 -14.2 -50.1 1 6.2 NW 52 72 28 39 1016.6 1018.8 0.0
23/07:30am -0.6 - - - - NW 48 63 26 34 1017.2 1019.4 0.0
23/07:00am 0.2 - - - - NW 52 65 28 35 1017.1 1019.3 0.0
23/06:30am 0.0 - - - - NW 50 63 27 34 1017.2 1019.4 0.0
23/06:00am 0.2 - - - - NW 48 61 26 33 1017.4 1019.6 0.0
23/05:30am -0.2 - - - - NW 44 57 24 31 1017.8 1020.0 0.0
23/05:00am 0.2 - - - - NW 44 54 24 29 1017.8 1020.0 0.0
23/04:30am 0.2 - - - - NW 43 56 23 30 1018.0 1020.3 0.0
23/04:00am 0.2 - - - - NW 44 54 24 29 1018.3 1020.5 0.0
23/03:30am -0.2 - - - - NW 37 48 20 26 1018.9 1021.2 0.0
23/03:00am -0.4 -11.0 -50.2 1 6.1 NW 35 46 19 25 1019.3 1021.5 0.0
23/02:30am 0.1 - - - - NW 35 44 19 24 1019.5 1021.8 0.0
23/02:00am -0.1 - - - - NW 32 43 17 23 1020.0 1022.3 0.0
23/01:30am 1.0 - - - - NW 35 41 19 22 1019.9 1022.2 0.0
23/01:00am 1.3 - - - - NW 33 39 18 21 1020.2 1022.6 0.0
23/12:30am 1.4 - - - - NW 30 37 16 20 1020.6 1022.9 0.0
23/12:00am 2.2 - - - - NW 30 35 16 19 1021.0 1023.3 0.0
 
Date/Time
EST
Temp
°C
App
Temp
°C
Dew
Point
°C
Rel
Hum
%
Delta-T
°C
Wind Press
QNH
hPa
Press
MSL
hPa
Rain since
9am
mm
Dir  Spd
km/h
Gust
km/h
Spd
kts
Gust
kts
22/11:30pm 2.2 - - - - NW 30 33 16 18 1021.3 1023.7 0.0
22/11:00pm 1.1 - - - - NW 30 33 16 18 1021.7 1024.1 0.0
22/10:30pm 1.2 - - - - NW 30 33 16 18 1022.0 1024.5 0.0
22/10:00pm 1.2 - - - - NW 32 35 17 19 1022.2 1024.6 0.0
22/09:30pm 1.1 - - - - NW 26 33 14 18 1022.4 1024.8 0.0
22/09:00pm 0.0 - - - - WNW 22 26 12 14 1022.7 1025.1 0.0
22/08:30pm 0.1 - - - - NW 24 26 13 14 1022.9 1025.4 0.0
22/08:00pm 0.5 - - - - NW 28 30 15 16 1023.0 1025.5 0.0
22/07:30pm 1.1 - - - - NW 26 30 14 16 1023.1 1025.6 0.0
22/07:00pm 0.3 - - - - NW 22 26 12 14 1023.3 1025.7 0.0
22/06:30pm -0.7 - - - - WNW 20 24 11 13 1023.4 1025.9 0.0
22/06:00pm 0.5 - - - - NW 28 32 15 17 1023.3 1025.7 0.0
22/05:30pm -0.3 -10.9 -50.1 1 6.2 NW 35 43 19 23 1023.3 1025.7 0.0
22/05:00pm 1.0 - - - - NW 30 32 16 17 1023.3 1025.7 0.0
22/04:30pm 1.8 - - - - NW 32 37 17 20 1023.3 1025.7 0.0
22/04:00pm 2.7 - - - - NW 32 37 17 20 1023.1 1025.6 0.0
22/03:30pm 2.5 - - - - NW 28 32 15 17 1023.4 1025.9 0.0
22/03:00pm 2.9 - - - - NW 30 37 16 20 1023.3 1025.7 0.0
22/02:30pm 2.8 - - - - NNW 32 39 17 21 1023.6 1026.1 0.0
22/02:00pm 2.9 - - - - NW 32 37 17 20 1023.9 1026.4 0.0
22/01:30pm 3.0 - - - - NW 33 43 18 23 1024.1 1026.6 0.0
22/01:00pm 2.6 -9.2 -48.3 1 7.2 NW 41 46 22 25 1024.2 1026.8 0.0
22/12:30pm 2.0 -9.4 -48.7 1 7.0 NW 39 48 21 26 1024.5 1027.0 0.0
22/12:00pm 3.1 - - - - NW 41 50 22 27 1024.5 1027.0 0.0
22/11:30am 2.7 -7.9 -48.1 1 7.2 NW 35 48 19 26 1025.1 1027.6 0.0
22/11:00am 3.2 - - - - NW 33 41 18 22 1025.6 1028.2 0.0
22/10:30am 3.1 - - - - NW 30 39 16 21 1026.3 1028.9 0.0
22/10:00am 3.4 - - - - NW 30 39 16 21 1026.2 1028.8 0.0
22/09:30am 3.0 - - - - NW 30 39 16 21 1026.0 1028.7 0.0
22/09:00am 2.2 - - - - NW 32 39 17 21 1025.9 1028.5 0.0
22/08:30am 2.0 - - - - NW 33 43 18 23 1025.8 1028.4 0.0
22/08:00am 1.5 - - - - NW 32 39 17 21 1025.9 1028.5 0.0
22/07:30am 1.3 - - - - NW 37 46 20 25 1025.4 1028.0 0.0
22/07:00am 1.0 - - - - NW 37 44 20 24 1025.4 1028.0 0.0
22/06:30am 0.5 - - - - NW 37 46 20 25 1025.3 1027.9 0.0
22/06:00am 0.7 - - - - NW 35 44 19 24 1025.1 1027.6 0.0
22/05:30am 1.3 - - - - NW 35 46 19 25 1025.0 1027.5 0.0
22/05:00am 0.7 - - - - NW 37 44 20 24 1024.8 1027.4 0.0
22/04:30am 0.2 - - - - NW 33 41 18 22 1025.0 1027.5 0.0
22/04:00am 0.6 - - - - NW 35 43 19 23 1025.0 1027.5 0.0
22/03:30am 0.2 - - - - NW 32 37 17 20 1025.2 1027.8 0.0
22/03:00am -0.4 - - - - NW 30 35 16 19 1025.6 1028.2 0.0
22/02:30am -0.4 -10.5 -50.3 1 6.1 NW 32 37 17 20 1025.8 1028.4 0.0
22/02:00am 0.4 - - - - NW 30 35 16 19 1025.7 1028.3 0.0
22/01:30am 0.6 - - - - NW 32 37 17 20 1025.7 1028.3 0.0
22/01:00am 1.0 - - - - NW 32 35 17 19 1025.8 1028.4 0.0
22/12:30am 1.0 - - - - NW 30 35 16 19 1026.2 1028.8 0.0
22/12:00am 0.9 - - - - NW 26 33 14 18 1026.5 1029.2 0.0
 
Date/Time
EST
Temp
°C
App
Temp
°C
Dew
Point
°C
Rel
Hum
%
Delta-T
°C
Wind Press
QNH
hPa
Press
MSL
hPa
Rain since
9am
mm
Dir  Spd
km/h
Gust
km/h
Spd
kts
Gust
kts
21/11:30pm 0.9 - - - - NW 30 33 16 18 1026.7 1029.3 0.0
21/11:00pm 1.1 - - - - NW 30 37 16 20 1026.9 1029.5 0.0
21/10:30pm 2.0 - - - - NW 30 39 16 21 1027.0 1029.7 0.0
21/10:00pm 1.9 - - - - NW 30 37 16 20 1027.1 1029.8 0.0
21/09:30pm 1.2 - - - - NW 24 28 13 15 1027.4 1030.1 0.0
21/09:00pm -2.4 -11.3 -51.5 1 5.4 NNW 26 32 14 17 1027.4 1030.1 0.0
21/08:30pm -2.4 -11.3 -45.4 2 5.4 NNW 26 32 14 17 1027.0 1029.7 0.0
21/08:00pm -2.6 -10.2 -51.6 1 5.4 N 19 28 10 15 1027.0 1029.7 0.0
21/07:30pm -2.4 -8.5 -51.5 1 5.5 NNW 11 15 6 8 1027.3 1029.9 0.0
21/07:00pm -1.5 -5.9 -50.9 1 5.7 N 2 6 1 3 1027.4 1030.1 0.0
21/06:30pm -0.1 -4.5 -50.0 1 6.2 SSW 2 6 1 3 1027.5 1030.2 0.0
21/06:00pm -1.0 -6.1 -50.6 1 5.9 NNW 6 9 3 5 1027.4 1030.1 0.0
21/05:30pm 0.2 -4.5 -49.8 1 6.3 WNW 4 13 2 7 1027.4 1030.1 0.0
21/05:00pm 1.0 -3.4 -49.3 1 6.6 SSW 2 6 1 3 1027.3 1029.9 0.0
21/04:30pm 1.5 -2.9 -49.0 1 6.8 WSW 2 4 1 2 1027.0 1029.7 0.0
21/04:00pm 3.3 -0.7 -47.9 1 7.4 CALM 0 2 0 1 1027.0 1029.7 0.0
21/03:30pm 4.3 -0.8 -47.3 1 7.9 W 6 13 3 7 1026.8 1029.4 0.0
21/03:00pm 4.8 0.4 -47.0 1 8.0 SW 2 9 1 5 1026.5 1029.2 0.0
21/02:30pm 5.1 0.8 -46.8 1 8.2 S 2 6 1 3 1026.3 1028.9 0.0
21/02:00pm 5.1 - - - - SW 7 11 4 6 1026.3 1028.9 0.0
21/01:30pm 6.0 - - - - ESE 2 6 1 3 1026.3 1028.9 0.0
21/01:00pm 5.5 - - - - SE 2 6 1 3 1026.4 1029.0 0.0
21/12:30pm 5.7 - - - - SE 2 6 1 3 1026.9 1029.5 0.0
21/12:00pm 6.2 - - - - S 4 7 2 4 1027.1 1029.8 0.0
21/11:30am 6.2 - - - - SE 4 6 2 3 1027.4 1030.1 0.0
21/11:00am 5.3 - - - - SW 2 7 1 4 1027.7 1030.4 0.0
21/10:30am 5.2 - - - - SW 6 13 3 7 1028.0 1030.7 0.0
21/10:00am 5.8 1.8 -46.3 1 8.4 CALM 0 2 0 1 1028.0 1030.7 0.0
21/09:30am 4.0 - - - - E 4 7 2 4 1028.0 1030.7 0.0
21/09:00am 2.6 -2.7 -48.3 1 7.1 SW 7 13 4 7 1027.7 1030.4 0.0
21/08:30am 2.3 -3.8 -48.7 1 7.1 SW 11 15 6 8 1027.5 1030.2 0.0
21/08:00am 2.0 -4.8 -48.7 1 6.9 SW 15 19 8 10 1027.3 1029.9 0.0
21/07:30am 1.6 -6.0 -49.0 1 6.8 WSW 19 22 10 12 1027.0 1029.7 0.0
21/07:00am 2.3 -5.3 -48.7 1 7.0 W 19 22 10 12 1026.7 1029.3 0.0

Other Formats:

Comma delimited format used in spreadsheet applications
http://www.bom.gov.au/fwo/IDN60801/IDN60801.95909.axf

JavaScript Object Notation format (JSON) in row-major order
http://www.bom.gov.au/fwo/IDN60801/IDN60801.95909.json